sensor_id;sensor_type;location;lat;lon;timestamp;temperature;humidity
40085;DHT22;25786;51.504;7.344;2023-04-21T00:00:17;7.90;90.30
40085;DHT22;25786;51.504;7.344;2023-04-21T00:02:43;8.00;90.30
40085;DHT22;25786;51.504;7.344;2023-04-21T00:05:10;8.10;90.30
40085;DHT22;25786;51.504;7.344;2023-04-21T00:07:38;8.10;90.10
40085;DHT22;25786;51.504;7.344;2023-04-21T00:10:05;8.20;90.00
40085;DHT22;25786;51.504;7.344;2023-04-21T00:12:31;8.30;90.20
40085;DHT22;25786;51.504;7.344;2023-04-21T00:14:57;8.30;90.00
40085;DHT22;25786;51.504;7.344;2023-04-21T00:17:22;8.30;89.90
40085;DHT22;25786;51.504;7.344;2023-04-21T00:19:48;8.30;90.00
40085;DHT22;25786;51.504;7.344;2023-04-21T00:22:13;8.40;90.10
40085;DHT22;25786;51.504;7.344;2023-04-21T00:24:39;8.40;89.80
40085;DHT22;25786;51.504;7.344;2023-04-21T00:27:05;8.50;89.90
40085;DHT22;25786;51.504;7.344;2023-04-21T00:29:30;8.60;89.10
40085;DHT22;25786;51.504;7.344;2023-04-21T00:31:56;8.60;89.10
40085;DHT22;25786;51.504;7.344;2023-04-21T00:34:21;8.50;89.10
40085;DHT22;25786;51.504;7.344;2023-04-21T00:36:47;8.30;88.90
40085;DHT22;25786;51.504;7.344;2023-04-21T00:39:12;8.10;88.80
40085;DHT22;25786;51.504;7.344;2023-04-21T00:41:38;8.00;88.90
40085;DHT22;25786;51.504;7.344;2023-04-21T00:44:05;8.00;89.20
40085;DHT22;25786;51.504;7.344;2023-04-21T00:46:31;7.90;89.40
40085;DHT22;25786;51.504;7.344;2023-04-21T00:48:57;8.00;89.60
40085;DHT22;25786;51.504;7.344;2023-04-21T00:51:22;7.90;89.70
40085;DHT22;25786;51.504;7.344;2023-04-21T00:53:48;8.00;90.10
40085;DHT22;25786;51.504;7.344;2023-04-21T00:56:14;8.10;90.20
40085;DHT22;25786;51.504;7.344;2023-04-21T00:58:41;8.20;90.20
40085;DHT22;25786;51.504;7.344;2023-04-21T01:01:06;8.30;90.10
40085;DHT22;25786;51.504;7.344;2023-04-21T01:03:32;8.30;90.00
40085;DHT22;25786;51.504;7.344;2023-04-21T01:05:58;8.40;90.00
40085;DHT22;25786;51.504;7.344;2023-04-21T01:08:23;8.40;90.00
40085;DHT22;25786;51.504;7.344;2023-04-21T01:10:51;8.50;89.90
40085;DHT22;25786;51.504;7.344;2023-04-21T01:16:20;8.50;89.80
40085;DHT22;25786;51.504;7.344;2023-04-21T01:18:47;8.50;89.70
40085;DHT22;25786;51.504;7.344;2023-04-21T01:23:58;8.50;90.00
40085;DHT22;25786;51.504;7.344;2023-04-21T01:26:23;8.60;90.00
40085;DHT22;25786;51.504;7.344;2023-04-21T01:28:49;8.60;90.10
40085;DHT22;25786;51.504;7.344;2023-04-21T01:31:15;8.50;90.10
40085;DHT22;25786;51.504;7.344;2023-04-21T01:33:40;8.60;90.10
40085;DHT22;25786;51.504;7.344;2023-04-21T01:36:07;8.60;89.90
40085;DHT22;25786;51.504;7.344;2023-04-21T01:38:32;8.60;89.90
40085;DHT22;25786;51.504;7.344;2023-04-21T01:40:58;8.60;89.90
40085;DHT22;25786;51.504;7.344;2023-04-21T01:43:23;8.40;89.70
40085;DHT22;25786;51.504;7.344;2023-04-21T01:45:49;8.50;90.00
40085;DHT22;25786;51.504;7.344;2023-04-21T01:48:15;8.30;89.80
40085;DHT22;25786;51.504;7.344;2023-04-21T01:50:40;8.40;89.90
40085;DHT22;25786;51.504;7.344;2023-04-21T01:53:06;8.20;89.90
40085;DHT22;25786;51.504;7.344;2023-04-21T01:55:32;8.20;90.10
40085;DHT22;25786;51.504;7.344;2023-04-21T01:57:57;8.20;90.10
40085;DHT22;25786;51.504;7.344;2023-04-21T02:00:24;8.10;90.30
40085;DHT22;25786;51.504;7.344;2023-04-21T02:02:49;8.10;90.80
40085;DHT22;25786;51.504;7.344;2023-04-21T02:05:14;8.00;90.50
40085;DHT22;25786;51.504;7.344;2023-04-21T02:07:40;8.10;91.00
40085;DHT22;25786;51.504;7.344;2023-04-21T02:10:06;8.20;91.00
40085;DHT22;25786;51.504;7.344;2023-04-21T02:12:31;8.10;90.70
40085;DHT22;25786;51.504;7.344;2023-04-21T02:14:57;8.10;91.00
40085;DHT22;25786;51.504;7.344;2023-04-21T02:17:22;8.20;91.20
40085;DHT22;25786;51.504;7.344;2023-04-21T02:19:48;8.30;91.10
40085;DHT22;25786;51.504;7.344;2023-04-21T02:22:13;8.30;91.10
40085;DHT22;25786;51.504;7.344;2023-04-21T02:24:39;8.30;91.40
40085;DHT22;25786;51.504;7.344;2023-04-21T02:27:05;8.30;91.30
40085;DHT22;25786;51.504;7.344;2023-04-21T02:29:30;8.30;91.20
40085;DHT22;25786;51.504;7.344;2023-04-21T02:31:56;8.30;91.40
40085;DHT22;25786;51.504;7.344;2023-04-21T02:34:21;8.20;91.20
40085;DHT22;25786;51.504;7.344;2023-04-21T02:36:47;8.10;91.20
40085;DHT22;25786;51.504;7.344;2023-04-21T02:39:13;8.20;91.40
40085;DHT22;25786;51.504;7.344;2023-04-21T02:41:38;8.20;91.20
40085;DHT22;25786;51.504;7.344;2023-04-21T02:44:04;8.00;90.90
40085;DHT22;25786;51.504;7.344;2023-04-21T02:46:29;8.10;91.50
40085;DHT22;25786;51.504;7.344;2023-04-21T02:48:55;8.20;91.60
40085;DHT22;25786;51.504;7.344;2023-04-21T02:51:21;8.30;91.60
40085;DHT22;25786;51.504;7.344;2023-04-21T02:53:46;8.40;91.50
40085;DHT22;25786;51.504;7.344;2023-04-21T02:56:12;8.40;91.30
40085;DHT22;25786;51.504;7.344;2023-04-21T02:58:37;8.30;91.20
40085;DHT22;25786;51.504;7.344;2023-04-21T03:01:03;8.20;91.10
40085;DHT22;25786;51.504;7.344;2023-04-21T03:03:29;8.20;91.10
40085;DHT22;25786;51.504;7.344;2023-04-21T03:05:58;8.20;91.30
40085;DHT22;25786;51.504;7.344;2023-04-21T03:08:24;8.20;91.10
40085;DHT22;25786;51.504;7.344;2023-04-21T03:10:49;8.30;91.40
40085;DHT22;25786;51.504;7.344;2023-04-21T03:13:15;8.30;91.10
40085;DHT22;25786;51.504;7.344;2023-04-21T03:15:41;8.20;91.20
40085;DHT22;25786;51.504;7.344;2023-04-21T03:18:06;8.10;91.20
40085;DHT22;25786;51.504;7.344;2023-04-21T03:20:32;8.10;91.40
40085;DHT22;25786;51.504;7.344;2023-04-21T03:22:57;8.10;91.50
40085;DHT22;25786;51.504;7.344;2023-04-21T03:25:23;8.10;91.60
40085;DHT22;25786;51.504;7.344;2023-04-21T03:27:48;8.10;91.50
40085;DHT22;25786;51.504;7.344;2023-04-21T03:30:14;8.00;91.50
40085;DHT22;25786;51.504;7.344;2023-04-21T03:32:39;8.10;91.60
40085;DHT22;25786;51.504;7.344;2023-04-21T03:35:05;8.20;91.60
40085;DHT22;25786;51.504;7.344;2023-04-21T03:37:30;8.20;91.70
40085;DHT22;25786;51.504;7.344;2023-04-21T03:39:56;8.30;91.50
40085;DHT22;25786;51.504;7.344;2023-04-21T03:42:21;8.30;91.50
40085;DHT22;25786;51.504;7.344;2023-04-21T03:44:47;8.30;91.50
40085;DHT22;25786;51.504;7.344;2023-04-21T03:47:12;8.30;91.40
40085;DHT22;25786;51.504;7.344;2023-04-21T03:49:38;8.30;91.80
40085;DHT22;25786;51.504;7.344;2023-04-21T03:52:03;8.40;91.60
40085;DHT22;25786;51.504;7.344;2023-04-21T03:54:29;8.40;91.60
40085;DHT22;25786;51.504;7.344;2023-04-21T03:56:58;8.40;91.50
40085;DHT22;25786;51.504;7.344;2023-04-21T03:59:23;8.40;91.50
40085;DHT22;25786;51.504;7.344;2023-04-21T04:01:48;8.20;91.10
40085;DHT22;25786;51.504;7.344;2023-04-21T04:04:14;8.20;91.30
40085;DHT22;25786;51.504;7.344;2023-04-21T04:06:40;8.10;91.30
40085;DHT22;25786;51.504;7.344;2023-04-21T04:09:06;8.10;91.40
40085;DHT22;25786;51.504;7.344;2023-04-21T04:11:33;8.10;91.60
40085;DHT22;25786;51.504;7.344;2023-04-21T04:13:58;8.20;91.60
40085;DHT22;25786;51.504;7.344;2023-04-21T04:16:24;8.20;91.70
40085;DHT22;25786;51.504;7.344;2023-04-21T04:18:49;8.30;91.70
40085;DHT22;25786;51.504;7.344;2023-04-21T04:21:15;8.30;91.50
40085;DHT22;25786;51.504;7.344;2023-04-21T04:23:40;8.40;91.60
40085;DHT22;25786;51.504;7.344;2023-04-21T04:26:07;8.50;91.50
40085;DHT22;25786;51.504;7.344;2023-04-21T04:28:32;8.50;91.40
40085;DHT22;25786;51.504;7.344;2023-04-21T04:30:59;8.60;91.30
40085;DHT22;25786;51.504;7.344;2023-04-21T04:33:25;8.50;91.20
40085;DHT22;25786;51.504;7.344;2023-04-21T04:35:50;8.50;91.30
40085;DHT22;25786;51.504;7.344;2023-04-21T04:38:16;8.50;91.20
40085;DHT22;25786;51.504;7.344;2023-04-21T04:40:42;8.50;91.10
40085;DHT22;25786;51.504;7.344;2023-04-21T04:43:08;8.60;91.40
40085;DHT22;25786;51.504;7.344;2023-04-21T04:45:35;8.60;91.20
40085;DHT22;25786;51.504;7.344;2023-04-21T04:48:00;8.60;91.20
40085;DHT22;25786;51.504;7.344;2023-04-21T04:50:26;8.60;91.00
40085;DHT22;25786;51.504;7.344;2023-04-21T04:52:51;8.60;91.00
40085;DHT22;25786;51.504;7.344;2023-04-21T04:55:17;8.80;90.90
40085;DHT22;25786;51.504;7.344;2023-04-21T04:57:43;8.80;90.70
40085;DHT22;25786;51.504;7.344;2023-04-21T05:00:08;8.70;90.70
40085;DHT22;25786;51.504;7.344;2023-04-21T05:02:38;8.80;90.90
40085;DHT22;25786;51.504;7.344;2023-04-21T05:05:04;8.80;90.80
40085;DHT22;25786;51.504;7.344;2023-04-21T05:07:30;8.80;90.80
40085;DHT22;25786;51.504;7.344;2023-04-21T05:09:56;8.70;90.90
40085;DHT22;25786;51.504;7.344;2023-04-21T05:12:21;8.80;91.00
40085;DHT22;25786;51.504;7.344;2023-04-21T05:14:47;8.80;90.90
40085;DHT22;25786;51.504;7.344;2023-04-21T05:17:12;8.80;90.80
40085;DHT22;25786;51.504;7.344;2023-04-21T05:19:38;8.80;90.80
40085;DHT22;25786;51.504;7.344;2023-04-21T05:22:03;8.80;90.90
40085;DHT22;25786;51.504;7.344;2023-04-21T05:24:31;8.90;91.10
40085;DHT22;25786;51.504;7.344;2023-04-21T05:26:57;8.80;91.00
40085;DHT22;25786;51.504;7.344;2023-04-21T05:29:22;8.90;91.00
40085;DHT22;25786;51.504;7.344;2023-04-21T05:31:48;9.00;91.10
40085;DHT22;25786;51.504;7.344;2023-04-21T05:34:13;9.00;91.10
40085;DHT22;25786;51.504;7.344;2023-04-21T05:36:41;8.90;90.90
40085;DHT22;25786;51.504;7.344;2023-04-21T05:39:07;8.90;90.80
40085;DHT22;25786;51.504;7.344;2023-04-21T05:41:33;8.80;90.70
40085;DHT22;25786;51.504;7.344;2023-04-21T05:43:58;9.00;91.00
40085;DHT22;25786;51.504;7.344;2023-04-21T05:46:24;8.80;90.80
40085;DHT22;25786;51.504;7.344;2023-04-21T05:48:49;8.90;90.70
40085;DHT22;25786;51.504;7.344;2023-04-21T05:51:14;8.90;90.60
40085;DHT22;25786;51.504;7.344;2023-04-21T05:53:40;9.00;90.80
40085;DHT22;25786;51.504;7.344;2023-04-21T05:56:10;9.00;90.80
40085;DHT22;25786;51.504;7.344;2023-04-21T05:58:36;9.00;90.80
40085;DHT22;25786;51.504;7.344;2023-04-21T06:01:02;9.10;90.70
40085;DHT22;25786;51.504;7.344;2023-04-21T06:03:29;9.20;90.50
40085;DHT22;25786;51.504;7.344;2023-04-21T06:05:55;9.20;90.30
40085;DHT22;25786;51.504;7.344;2023-04-21T06:08:23;9.30;90.70
40085;DHT22;25786;51.504;7.344;2023-04-21T06:10:49;9.20;90.50
40085;DHT22;25786;51.504;7.344;2023-04-21T06:13:14;9.30;90.50
40085;DHT22;25786;51.504;7.344;2023-04-21T06:15:40;9.30;90.60
40085;DHT22;25786;51.504;7.344;2023-04-21T06:18:05;9.40;90.60
40085;DHT22;25786;51.504;7.344;2023-04-21T06:20:31;9.50;90.30
40085;DHT22;25786;51.504;7.344;2023-04-21T06:22:56;9.50;90.40
40085;DHT22;25786;51.504;7.344;2023-04-21T06:25:22;9.50;90.10
40085;DHT22;25786;51.504;7.344;2023-04-21T06:27:47;9.60;90.10
40085;DHT22;25786;51.504;7.344;2023-04-21T06:30:13;9.60;90.10
40085;DHT22;25786;51.504;7.344;2023-04-21T06:32:38;9.60;90.30
40085;DHT22;25786;51.504;7.344;2023-04-21T06:35:04;9.60;90.40
40085;DHT22;25786;51.504;7.344;2023-04-21T06:37:30;9.60;90.30
40085;DHT22;25786;51.504;7.344;2023-04-21T06:39:55;9.60;90.50
40085;DHT22;25786;51.504;7.344;2023-04-21T06:42:21;9.70;90.40
40085;DHT22;25786;51.504;7.344;2023-04-21T06:44:46;9.70;90.10
40085;DHT22;25786;51.504;7.344;2023-04-21T06:47:12;9.70;90.20
40085;DHT22;25786;51.504;7.344;2023-04-21T06:49:37;9.70;90.20
40085;DHT22;25786;51.504;7.344;2023-04-21T06:52:03;9.80;89.90
40085;DHT22;25786;51.504;7.344;2023-04-21T06:54:29;9.80;89.80
40085;DHT22;25786;51.504;7.344;2023-04-21T06:56:54;9.80;90.00
40085;DHT22;25786;51.504;7.344;2023-04-21T06:59:21;9.80;90.30
40085;DHT22;25786;51.504;7.344;2023-04-21T07:01:47;9.90;90.50
40085;DHT22;25786;51.504;7.344;2023-04-21T07:04:16;10.00;90.50
40085;DHT22;25786;51.504;7.344;2023-04-21T07:06:42;10.10;90.80
40085;DHT22;25786;51.504;7.344;2023-04-21T07:09:08;10.20;90.50
40085;DHT22;25786;51.504;7.344;2023-04-21T07:11:33;10.20;89.90
40085;DHT22;25786;51.504;7.344;2023-04-21T07:13:58;10.20;90.10
40085;DHT22;25786;51.504;7.344;2023-04-21T07:16:29;10.20;89.50
40085;DHT22;25786;51.504;7.344;2023-04-21T07:18:54;10.30;89.50
40085;DHT22;25786;51.504;7.344;2023-04-21T07:21:20;10.40;89.50
40085;DHT22;25786;51.504;7.344;2023-04-21T07:23:45;10.40;88.80
40085;DHT22;25786;51.504;7.344;2023-04-21T07:26:11;10.40;89.00
40085;DHT22;25786;51.504;7.344;2023-04-21T07:28:37;10.50;89.10
40085;DHT22;25786;51.504;7.344;2023-04-21T07:31:03;10.40;88.90
40085;DHT22;25786;51.504;7.344;2023-04-21T07:33:28;10.50;88.90
40085;DHT22;25786;51.504;7.344;2023-04-21T07:35:54;10.50;88.60
40085;DHT22;25786;51.504;7.344;2023-04-21T07:38:19;10.50;89.10
40085;DHT22;25786;51.504;7.344;2023-04-21T07:40:45;10.50;88.90
40085;DHT22;25786;51.504;7.344;2023-04-21T07:43:10;10.50;88.80
40085;DHT22;25786;51.504;7.344;2023-04-21T07:45:36;10.50;88.90
40085;DHT22;25786;51.504;7.344;2023-04-21T07:48:01;10.50;89.30
40085;DHT22;25786;51.504;7.344;2023-04-21T07:50:27;10.60;88.90
40085;DHT22;25786;51.504;7.344;2023-04-21T07:52:52;10.60;88.10
40085;DHT22;25786;51.504;7.344;2023-04-21T07:55:18;10.60;88.60
40085;DHT22;25786;51.504;7.344;2023-04-21T07:57:43;10.60;88.50
40085;DHT22;25786;51.504;7.344;2023-04-21T08:00:09;10.60;88.60
40085;DHT22;25786;51.504;7.344;2023-04-21T08:02:34;10.60;87.40
40085;DHT22;25786;51.504;7.344;2023-04-21T08:05:00;10.50;87.70
40085;DHT22;25786;51.504;7.344;2023-04-21T08:07:25;10.60;87.70
40085;DHT22;25786;51.504;7.344;2023-04-21T08:09:51;10.60;87.40
40085;DHT22;25786;51.504;7.344;2023-04-21T08:12:16;10.60;87.10
40085;DHT22;25786;51.504;7.344;2023-04-21T08:14:42;10.60;86.80
40085;DHT22;25786;51.504;7.344;2023-04-21T08:17:07;10.60;87.20
40085;DHT22;25786;51.504;7.344;2023-04-21T08:19:33;10.60;87.70
40085;DHT22;25786;51.504;7.344;2023-04-21T08:21:58;10.60;87.40
40085;DHT22;25786;51.504;7.344;2023-04-21T08:24:24;10.70;87.40
40085;DHT22;25786;51.504;7.344;2023-04-21T08:26:49;10.70;87.50
40085;DHT22;25786;51.504;7.344;2023-04-21T08:29:15;10.70;87.50
40085;DHT22;25786;51.504;7.344;2023-04-21T08:31:41;10.70;87.30
40085;DHT22;25786;51.504;7.344;2023-04-21T08:34:08;10.80;87.50
40085;DHT22;25786;51.504;7.344;2023-04-21T08:36:34;10.80;87.00
40085;DHT22;25786;51.504;7.344;2023-04-21T08:39:00;10.80;86.80
40085;DHT22;25786;51.504;7.344;2023-04-21T08:41:25;10.70;87.40
40085;DHT22;25786;51.504;7.344;2023-04-21T08:43:51;10.70;87.80
40085;DHT22;25786;51.504;7.344;2023-04-21T08:46:16;10.80;87.40
40085;DHT22;25786;51.504;7.344;2023-04-21T08:48:42;10.80;87.30
40085;DHT22;25786;51.504;7.344;2023-04-21T08:51:10;10.90;87.20
40085;DHT22;25786;51.504;7.344;2023-04-21T08:53:36;10.90;87.00
40085;DHT22;25786;51.504;7.344;2023-04-21T08:56:02;10.90;86.40
40085;DHT22;25786;51.504;7.344;2023-04-21T08:58:27;11.00;87.30
40085;DHT22;25786;51.504;7.344;2023-04-21T09:03:25;11.00;87.30
40085;DHT22;25786;51.504;7.344;2023-04-21T09:06:06;11.10;87.50
40085;DHT22;25786;51.504;7.344;2023-04-21T09:08:32;11.10;87.20
40085;DHT22;25786;51.504;7.344;2023-04-21T09:10:58;11.10;86.70
40085;DHT22;25786;51.504;7.344;2023-04-21T09:13:31;11.10;86.80
40085;DHT22;25786;51.504;7.344;2023-04-21T09:15:56;11.10;86.70
40085;DHT22;25786;51.504;7.344;2023-04-21T09:18:23;11.20;86.80
40085;DHT22;25786;51.504;7.344;2023-04-21T09:20:50;11.20;86.60
40085;DHT22;25786;51.504;7.344;2023-04-21T09:23:16;11.30;86.60
40085;DHT22;25786;51.504;7.344;2023-04-21T09:25:42;11.30;86.00
40085;DHT22;25786;51.504;7.344;2023-04-21T09:28:08;11.30;86.00
40085;DHT22;25786;51.504;7.344;2023-04-21T09:30:34;11.50;86.40
40085;DHT22;25786;51.504;7.344;2023-04-21T09:33:00;11.50;85.60
40085;DHT22;25786;51.504;7.344;2023-04-21T09:35:31;11.60;85.50
40085;DHT22;25786;51.504;7.344;2023-04-21T09:37:56;11.60;85.80
40085;DHT22;25786;51.504;7.344;2023-04-21T09:40:22;11.80;84.90
40085;DHT22;25786;51.504;7.344;2023-04-21T09:42:47;11.80;85.30
40085;DHT22;25786;51.504;7.344;2023-04-21T09:45:14;11.80;85.20
40085;DHT22;25786;51.504;7.344;2023-04-21T09:47:41;11.90;85.50
40085;DHT22;25786;51.504;7.344;2023-04-21T09:50:07;12.10;84.80
40085;DHT22;25786;51.504;7.344;2023-04-21T09:52:33;12.20;84.60
40085;DHT22;25786;51.504;7.344;2023-04-21T09:55:02;12.10;83.70
40085;DHT22;25786;51.504;7.344;2023-04-21T09:57:29;12.10;84.30
40085;DHT22;25786;51.504;7.344;2023-04-21T09:59:59;12.10;84.00
40085;DHT22;25786;51.504;7.344;2023-04-21T10:02:25;12.20;83.50
40085;DHT22;25786;51.504;7.344;2023-04-21T10:04:54;12.20;83.60
40085;DHT22;25786;51.504;7.344;2023-04-21T10:07:19;12.30;83.80
40085;DHT22;25786;51.504;7.344;2023-04-21T10:09:46;12.40;82.80
40085;DHT22;25786;51.504;7.344;2023-04-21T10:12:13;12.50;83.20
40085;DHT22;25786;51.504;7.344;2023-04-21T10:14:39;12.70;83.00
40085;DHT22;25786;51.504;7.344;2023-04-21T10:17:08;12.80;82.30
40085;DHT22;25786;51.504;7.344;2023-04-21T10:19:35;12.80;81.50
40085;DHT22;25786;51.504;7.344;2023-04-21T10:22:07;12.80;81.20
40085;DHT22;25786;51.504;7.344;2023-04-21T10:24:40;12.80;80.50
40085;DHT22;25786;51.504;7.344;2023-04-21T10:27:10;13.00;82.60
40085;DHT22;25786;51.504;7.344;2023-04-21T10:29:36;13.10;81.90
40085;DHT22;25786;51.504;7.344;2023-04-21T10:32:02;13.10;82.60
40085;DHT22;25786;51.504;7.344;2023-04-21T10:34:29;13.20;81.40
40085;DHT22;25786;51.504;7.344;2023-04-21T10:41:54;13.30;80.00
40085;DHT22;25786;51.504;7.344;2023-04-21T10:44:20;13.50;79.50
40085;DHT22;25786;51.504;7.344;2023-04-21T10:46:47;13.50;79.20
40085;DHT22;25786;51.504;7.344;2023-04-21T10:49:28;13.60;79.50
40085;DHT22;25786;51.504;7.344;2023-04-21T10:54:24;13.80;79.00
40085;DHT22;25786;51.504;7.344;2023-04-21T10:56:50;13.90;79.40
40085;DHT22;25786;51.504;7.344;2023-04-21T10:59:16;13.80;78.30
40085;DHT22;25786;51.504;7.344;2023-04-21T11:01:42;13.70;79.70
40085;DHT22;25786;51.504;7.344;2023-04-21T11:04:17;13.70;79.30
40085;DHT22;25786;51.504;7.344;2023-04-21T11:06:54;13.60;79.30
40085;DHT22;25786;51.504;7.344;2023-04-21T11:09:29;13.60;79.60
40085;DHT22;25786;51.504;7.344;2023-04-21T11:11:58;13.50;79.50
40085;DHT22;25786;51.504;7.344;2023-04-21T11:14:24;13.50;80.00
40085;DHT22;25786;51.504;7.344;2023-04-21T11:16:50;13.50;80.70
40085;DHT22;25786;51.504;7.344;2023-04-21T11:19:16;13.40;78.90
40085;DHT22;25786;51.504;7.344;2023-04-21T11:21:41;13.30;78.90
40085;DHT22;25786;51.504;7.344;2023-04-21T11:24:07;13.30;79.60
40085;DHT22;25786;51.504;7.344;2023-04-21T11:26:45;13.30;79.50
40085;DHT22;25786;51.504;7.344;2023-04-21T11:29:10;13.30;79.30
40085;DHT22;25786;51.504;7.344;2023-04-21T11:31:37;13.50;79.60
40085;DHT22;25786;51.504;7.344;2023-04-21T11:34:04;13.60;79.10
40085;DHT22;25786;51.504;7.344;2023-04-21T11:36:33;13.50;78.50
40085;DHT22;25786;51.504;7.344;2023-04-21T11:39:02;13.50;77.70
40085;DHT22;25786;51.504;7.344;2023-04-21T11:41:28;13.60;78.20
40085;DHT22;25786;51.504;7.344;2023-04-21T11:43:53;13.70;79.10
40085;DHT22;25786;51.504;7.344;2023-04-21T11:46:23;13.90;78.80
40085;DHT22;25786;51.504;7.344;2023-04-21T11:51:23;14.10;77.00
40085;DHT22;25786;51.504;7.344;2023-04-21T11:53:49;14.20;77.00
40085;DHT22;25786;51.504;7.344;2023-04-21T11:56:19;14.30;77.00
40085;DHT22;25786;51.504;7.344;2023-04-21T11:58:46;14.50;75.60
40085;DHT22;25786;51.504;7.344;2023-04-21T12:01:14;14.40;75.10
40085;DHT22;25786;51.504;7.344;2023-04-21T12:03:40;14.40;76.60
40085;DHT22;25786;51.504;7.344;2023-04-21T12:06:05;14.40;76.80
40085;DHT22;25786;51.504;7.344;2023-04-21T12:08:31;14.40;75.60
40085;DHT22;25786;51.504;7.344;2023-04-21T12:10:57;14.50;76.00
40085;DHT22;25786;51.504;7.344;2023-04-21T12:13:26;14.60;73.60
40085;DHT22;25786;51.504;7.344;2023-04-21T12:15:52;14.70;74.10
40085;DHT22;25786;51.504;7.344;2023-04-21T12:18:18;14.80;74.60
40085;DHT22;25786;51.504;7.344;2023-04-21T12:20:50;14.90;73.30
40085;DHT22;25786;51.504;7.344;2023-04-21T12:23:17;14.90;72.90
40085;DHT22;25786;51.504;7.344;2023-04-21T12:25:42;15.10;72.50
40085;DHT22;25786;51.504;7.344;2023-04-21T12:28:10;15.30;74.60
40085;DHT22;25786;51.504;7.344;2023-04-21T12:30:35;15.30;71.90
40085;DHT22;25786;51.504;7.344;2023-04-21T12:33:01;15.30;72.50
40085;DHT22;25786;51.504;7.344;2023-04-21T12:35:26;15.50;73.40
40085;DHT22;25786;51.504;7.344;2023-04-21T12:37:52;15.70;73.70
40085;DHT22;25786;51.504;7.344;2023-04-21T12:40:17;15.90;71.10
40085;DHT22;25786;51.504;7.344;2023-04-21T12:42:43;15.80;70.80
40085;DHT22;25786;51.504;7.344;2023-04-21T12:45:08;15.80;68.80
40085;DHT22;25786;51.504;7.344;2023-04-21T12:47:34;15.80;69.30
40085;DHT22;25786;51.504;7.344;2023-04-21T12:50:01;15.80;70.50
40085;DHT22;25786;51.504;7.344;2023-04-21T12:52:26;15.80;69.80
40085;DHT22;25786;51.504;7.344;2023-04-21T12:54:52;15.80;70.80
40085;DHT22;25786;51.504;7.344;2023-04-21T12:57:17;16.00;71.20
40085;DHT22;25786;51.504;7.344;2023-04-21T12:59:43;16.10;70.50
40085;DHT22;25786;51.504;7.344;2023-04-21T13:02:08;16.30;69.80
40085;DHT22;25786;51.504;7.344;2023-04-21T13:04:34;16.50;69.50
40085;DHT22;25786;51.504;7.344;2023-04-21T13:07:00;16.50;69.60
40085;DHT22;25786;51.504;7.344;2023-04-21T13:09:26;16.60;69.80
40085;DHT22;25786;51.504;7.344;2023-04-21T13:11:51;16.80;68.90
40085;DHT22;25786;51.504;7.344;2023-04-21T13:14:17;16.90;68.50
40085;DHT22;25786;51.504;7.344;2023-04-21T13:16:43;16.40;68.10
40085;DHT22;25786;51.504;7.344;2023-04-21T13:19:08;16.50;68.20
40085;DHT22;25786;51.504;7.344;2023-04-21T13:21:34;16.30;68.90
40085;DHT22;25786;51.504;7.344;2023-04-21T13:23:59;16.30;69.30
40085;DHT22;25786;51.504;7.344;2023-04-21T13:26:27;16.20;69.60
40085;DHT22;25786;51.504;7.344;2023-04-21T13:28:52;16.00;69.50
40085;DHT22;25786;51.504;7.344;2023-04-21T13:31:18;16.00;68.10
40085;DHT22;25786;51.504;7.344;2023-04-21T13:33:43;16.00;68.80
40085;DHT22;25786;51.504;7.344;2023-04-21T13:36:09;16.10;69.90
40085;DHT22;25786;51.504;7.344;2023-04-21T13:38:35;16.20;68.80
40085;DHT22;25786;51.504;7.344;2023-04-21T13:41:00;16.50;69.20
40085;DHT22;25786;51.504;7.344;2023-04-21T13:43:26;16.50;68.30
40085;DHT22;25786;51.504;7.344;2023-04-21T13:45:51;16.60;68.60
40085;DHT22;25786;51.504;7.344;2023-04-21T13:48:18;16.70;69.30
40085;DHT22;25786;51.504;7.344;2023-04-21T13:50:43;16.70;67.10
40085;DHT22;25786;51.504;7.344;2023-04-21T13:53:09;16.60;66.30
40085;DHT22;25786;51.504;7.344;2023-04-21T13:55:35;16.60;68.00
40085;DHT22;25786;51.504;7.344;2023-04-21T13:58:00;16.50;67.40
40085;DHT22;25786;51.504;7.344;2023-04-21T14:00:26;16.60;68.00
40085;DHT22;25786;51.504;7.344;2023-04-21T14:02:51;16.60;67.60
40085;DHT22;25786;51.504;7.344;2023-04-21T14:05:17;16.50;68.20
40085;DHT22;25786;51.504;7.344;2023-04-21T14:07:42;16.60;67.30
40085;DHT22;25786;51.504;7.344;2023-04-21T14:10:08;16.60;66.90
40085;DHT22;25786;51.504;7.344;2023-04-21T14:12:34;16.70;66.60
40085;DHT22;25786;51.504;7.344;2023-04-21T14:14:59;16.90;67.10
40085;DHT22;25786;51.504;7.344;2023-04-21T14:17:25;17.10;67.30
40085;DHT22;25786;51.504;7.344;2023-04-21T14:19:50;17.10;65.90
40085;DHT22;25786;51.504;7.344;2023-04-21T14:22:16;17.20;66.50
40085;DHT22;25786;51.504;7.344;2023-04-21T14:24:41;17.20;63.70
40085;DHT22;25786;51.504;7.344;2023-04-21T14:27:07;17.30;64.30
40085;DHT22;25786;51.504;7.344;2023-04-21T14:29:32;17.30;64.40
40085;DHT22;25786;51.504;7.344;2023-04-21T14:31:59;17.30;65.60
40085;DHT22;25786;51.504;7.344;2023-04-21T14:34:24;17.50;65.60
40085;DHT22;25786;51.504;7.344;2023-04-21T14:36:51;17.70;63.90
40085;DHT22;25786;51.504;7.344;2023-04-21T14:39:16;17.80;63.00
40085;DHT22;25786;51.504;7.344;2023-04-21T14:41:42;17.90;63.00
40085;DHT22;25786;51.504;7.344;2023-04-21T14:44:07;18.10;64.90
40085;DHT22;25786;51.504;7.344;2023-04-21T14:46:33;18.10;61.50
40085;DHT22;25786;51.504;7.344;2023-04-21T14:48:58;18.20;63.50
40085;DHT22;25786;51.504;7.344;2023-04-21T14:51:24;18.20;60.90
40085;DHT22;25786;51.504;7.344;2023-04-21T14:53:49;18.30;64.80
40085;DHT22;25786;51.504;7.344;2023-04-21T14:56:15;18.10;63.00
40085;DHT22;25786;51.504;7.344;2023-04-21T14:58:41;18.00;62.80
40085;DHT22;25786;51.504;7.344;2023-04-21T15:01:06;17.90;64.00
40085;DHT22;25786;51.504;7.344;2023-04-21T15:03:41;17.60;62.80
40085;DHT22;25786;51.504;7.344;2023-04-21T15:06:16;17.50;63.60
40085;DHT22;25786;51.504;7.344;2023-04-21T15:08:42;17.40;62.80
40085;DHT22;25786;51.504;7.344;2023-04-21T15:11:08;17.10;66.40
40085;DHT22;25786;51.504;7.344;2023-04-21T15:13:36;17.00;66.00
40085;DHT22;25786;51.504;7.344;2023-04-21T15:16:05;16.90;66.90
40085;DHT22;25786;51.504;7.344;2023-04-21T15:18:31;16.80;64.70
40085;DHT22;25786;51.504;7.344;2023-04-21T15:21:00;16.80;65.20
40085;DHT22;25786;51.504;7.344;2023-04-21T15:23:40;16.80;64.70
40085;DHT22;25786;51.504;7.344;2023-04-21T15:26:06;16.80;67.40
40085;DHT22;25786;51.504;7.344;2023-04-21T15:28:32;16.70;66.60
40085;DHT22;25786;51.504;7.344;2023-04-21T15:31:00;16.70;65.40
40085;DHT22;25786;51.504;7.344;2023-04-21T15:33:25;16.60;67.40
40085;DHT22;25786;51.504;7.344;2023-04-21T15:35:54;16.60;68.30
40085;DHT22;25786;51.504;7.344;2023-04-21T15:38:19;16.60;67.90
40085;DHT22;25786;51.504;7.344;2023-04-21T15:40:45;16.70;67.20
40085;DHT22;25786;51.504;7.344;2023-04-21T15:43:10;16.70;67.70
40085;DHT22;25786;51.504;7.344;2023-04-21T15:45:36;16.70;68.60
40085;DHT22;25786;51.504;7.344;2023-04-21T15:48:01;16.80;68.20